Time;durP1;ratioP1;P1;durP2;ratioP2;P2;SDS_P1;SDS_P2;PMS_P1;PMS_P2;Temp;Humidity;BMP_temperature;BMP_pressure;BME280_temperature;BME280_humidity;BME280_pressure;Samples;Min_cycle;Max_cycle;Signal;HPM_P1;HPM_P2
2023/04/25 00:02:13;;;;;;;3.20;2.90;;;14.80;36.20;;;;;;5093315;28;20198;-50
2023/04/25 00:04:38;;;;;;;4.72;3.58;;;14.80;36.60;;;;;;5093530;28;20189;-50
2023/04/25 00:07:04;;;;;;;5.10;3.50;;;14.80;36.50;;;;;;5093490;28;20184;-50
2023/04/25 00:09:30;;;;;;;3.73;3.43;;;14.80;36.40;;;;;;5093581;28;20206;-50
2023/04/25 00:11:56;;;;;;;3.63;3.33;;;14.80;36.80;;;;;;5093042;28;20972;-50
2023/04/25 00:14:22;;;;;;;4.17;3.20;;;14.80;36.40;;;;;;5093409;28;20408;-50
2023/04/25 00:16:48;;;;;;;4.70;3.92;;;14.70;36.80;;;;;;5093240;28;20651;-50
2023/04/25 00:19:14;;;;;;;6.60;4.13;;;14.70;36.90;;;;;;5093429;28;20203;-50
2023/04/25 00:21:40;;;;;;;4.30;3.47;;;14.70;37.10;;;;;;5093111;28;20414;-50
2023/04/25 00:24:07;;;;;;;6.37;3.70;;;14.70;37.20;;;;;;5093190;28;20238;-50
2023/04/25 00:26:35;;;;;;;5.50;3.95;;;14.70;37.50;;;;;;5093350;28;20494;-50
2023/04/25 00:29:01;;;;;;;5.57;3.88;;;14.60;37.80;;;;;;5092935;28;20676;-50
2023/04/25 00:31:28;;;;;;;6.93;4.10;;;14.50;38.20;;;;;;5092684;28;20219;-50
2023/04/25 00:33:54;;;;;;;3.88;3.38;;;14.50;38.10;;;;;;5093193;28;20180;-50
2023/04/25 00:36:20;;;;;;;3.63;3.23;;;14.50;38.10;;;;;;5092900;28;20509;-50
2023/04/25 00:38:46;;;;;;;5.70;3.77;;;14.50;38.20;;;;;;5092790;28;20187;-50
2023/04/25 00:41:12;;;;;;;3.77;3.37;;;14.40;38.10;;;;;;5092678;28;20418;-50
2023/04/25 00:43:39;;;;;;;3.72;3.33;;;14.40;37.80;;;;;;5092547;28;20695;-50
2023/04/25 00:46:05;;;;;;;4.47;3.72;;;14.40;37.80;;;;;;5092774;28;20197;-50
2023/04/25 00:48:31;;;;;;;5.40;4.27;;;14.40;37.80;;;;;;5092790;28;20246;-50
2023/04/25 00:50:59;;;;;;;5.33;3.80;;;14.40;37.90;;;;;;5092634;28;20200;-50
2023/04/25 00:53:27;;;;;;;4.15;3.75;;;14.40;38.00;;;;;;5092635;28;20195;-50
2023/04/25 00:55:54;;;;;;;4.45;3.95;;;14.40;37.80;;;;;;5092625;28;20172;-49
2023/04/25 00:58:21;;;;;;;10.07;6.43;;;14.40;37.80;;;;;;5092666;28;20176;-49
2023/04/25 01:00:48;;;;;;;7.00;4.05;;;14.30;37.70;;;;;;5092790;28;20215;-50
2023/04/25 01:03:16;;;;;;;4.90;3.90;;;14.30;37.70;;;;;;5092246;28;20172;-50
2023/04/25 01:05:42;;;;;;;5.93;4.90;;;14.30;37.60;;;;;;5092461;28;20663;-50
2023/04/25 01:08:08;;;;;;;4.85;3.65;;;14.30;37.50;;;;;;5092705;28;20179;-49
2023/04/25 01:10:34;;;;;;;6.40;4.45;;;14.30;37.60;;;;;;5092528;28;20211;-50
2023/04/25 01:13:00;;;;;;;4.43;4.03;;;14.20;37.60;;;;;;5092153;28;20631;-50
2023/04/25 01:15:25;;;;;;;5.30;4.73;;;14.20;37.50;;;;;;5092621;28;20168;-50
2023/04/25 01:17:52;;;;;;;4.53;4.03;;;14.20;37.40;;;;;;5092204;28;20172;-50
2023/04/25 01:20:21;;;;;;;6.72;4.00;;;14.20;37.30;;;;;;5092234;28;20198;-50
2023/04/25 01:22:47;;;;;;;6.40;4.07;;;14.20;37.30;;;;;;5092150;28;20191;-50
2023/04/25 01:25:13;;;;;;;7.00;5.63;;;14.20;37.10;;;;;;5092575;28;20167;-50
2023/04/25 01:27:39;;;;;;;5.47;4.07;;;14.10;37.20;;;;;;5092238;28;20766;-50
2023/04/25 01:30:05;;;;;;;5.82;4.50;;;14.10;37.10;;;;;;5091839;28;20437;-50
2023/04/25 01:32:38;;;;;;;5.85;4.22;;;14.10;37.30;;;;;;5091874;28;20616;-48
2023/04/25 01:35:09;;;;;;;7.10;4.65;;;14.00;37.30;;;;;;5092158;28;20247;-50
2023/04/25 01:37:39;;;;;;;6.13;4.20;;;14.00;37.90;;;;;;5092374;28;20187;-50
2023/04/25 01:40:06;;;;;;;7.18;3.95;;;13.90;37.30;;;;;;5091974;28;20656;-50
2023/04/25 01:42:33;;;;;;;4.22;3.80;;;13.90;37.40;;;;;;5091806;28;20652;-50
2023/04/25 01:44:59;;;;;;;6.25;5.25;;;13.80;37.90;;;;;;5092213;28;20175;-50
2023/04/25 01:47:25;;;;;;;4.63;4.07;;;13.80;37.30;;;;;;5092005;28;20233;-50
2023/04/25 01:49:51;;;;;;;5.67;4.67;;;13.70;37.40;;;;;;5091959;28;20425;-50
2023/04/25 01:52:17;;;;;;;5.70;5.20;;;13.60;37.50;;;;;;5092749;28;20199;-50
2023/04/25 01:54:44;;;;;;;6.13;4.97;;;13.60;37.50;;;;;;5096356;28;20409;-50
2023/04/25 01:57:11;;;;;;;7.45;4.78;;;13.60;37.40;;;;;;5095940;28;20199;-50
2023/04/25 01:59:37;;;;;;;7.72;4.85;;;13.50;37.30;;;;;;5095706;28;20204;-50
2023/04/25 02:02:05;;;;;;;5.85;4.65;;;13.60;37.30;;;;;;5095723;28;20647;-50
2023/04/25 02:04:31;;;;;;;5.97;5.32;;;13.50;37.50;;;;;;5096130;28;20188;-49
2023/04/25 02:07:31;;;;;;;9.80;5.50;;;13.50;37.40;;;;;;5095860;28;20168;-49
2023/04/25 02:09:57;;;;;;;7.30;4.60;;;13.40;37.40;;;;;;5095622;28;20222;-50
2023/04/25 02:12:23;;;;;;;6.70;5.37;;;13.30;37.40;;;;;;5095427;28;20204;-50
2023/04/25 02:14:48;;;;;;;13.30;5.73;;;13.30;37.50;;;;;;5095737;28;20246;-49
2023/04/25 02:17:14;;;;;;;10.97;5.73;;;13.20;37.40;;;;;;5095896;28;20167;-50
2023/04/25 02:19:40;;;;;;;7.43;5.30;;;13.20;37.50;;;;;;5095562;28;20626;-50
2023/04/25 02:22:06;;;;;;;5.20;4.60;;;13.20;37.30;;;;;;5095372;28;20705;-49
2023/04/25 02:24:33;;;;;;;4.93;4.43;;;13.10;37.50;;;;;;5095422;28;20201;-49
2023/04/25 02:26:59;;;;;;;10.02;5.07;;;13.20;37.50;;;;;;5095693;28;20176;-50
2023/04/25 02:29:24;;;;;;;7.63;5.43;;;13.10;37.50;;;;;;5095233;28;20348;-50
2023/04/25 02:31:50;;;;;;;5.20;4.60;;;13.00;37.50;;;;;;5094961;28;20204;-50
2023/04/25 02:34:16;;;;;;;6.27;5.13;;;13.00;37.60;;;;;;5095422;28;20259;-49
2023/04/25 02:36:42;;;;;;;6.30;5.33;;;12.90;37.60;;;;;;5095339;28;20168;-49
2023/04/25 02:39:07;;;;;;;7.00;5.00;;;12.90;37.70;;;;;;5095294;28;20611;-49
2023/04/25 02:41:33;;;;;;;7.43;5.70;;;12.90;37.70;;;;;;5095358;28;20175;-50
2023/04/25 02:43:59;;;;;;;7.37;5.10;;;12.80;37.60;;;;;;5095078;28;20591;-50
2023/04/25 02:46:24;;;;;;;6.47;4.50;;;12.80;37.60;;;;;;5095232;28;20800;-49
2023/04/25 02:48:50;;;;;;;6.57;5.43;;;12.80;37.60;;;;;;5094876;28;20200;-49
2023/04/25 02:51:16;;;;;;;6.97;5.57;;;12.80;37.60;;;;;;5094855;28;20256;-50
2023/04/25 02:53:42;;;;;;;6.40;5.00;;;12.80;37.50;;;;;;5094700;28;20195;-49
2023/04/25 02:56:07;;;;;;;6.37;4.57;;;12.80;37.60;;;;;;5094840;28;20171;-50
2023/04/25 02:58:33;;;;;;;6.93;6.23;;;12.70;37.70;;;;;;5094845;28;20428;-49
2023/04/25 03:00:59;;;;;;;8.80;5.50;;;12.70;37.70;;;;;;5094775;28;20251;-49
2023/04/25 03:03:25;;;;;;;8.83;5.90;;;12.60;37.70;;;;;;5094088;28;20263;-50
2023/04/25 03:05:51;;;;;;;6.83;5.30;;;12.60;38.00;;;;;;5094677;28;20198;-50
2023/04/25 03:08:17;;;;;;;10.23;5.30;;;12.60;38.00;;;;;;5094798;28;20176;-50
2023/04/25 03:10:44;;;;;;;8.52;5.15;;;12.60;37.80;;;;;;5094528;28;20545;-50
2023/04/25 03:13:10;;;;;;;7.32;5.30;;;12.60;38.20;;;;;;5094282;28;20168;-50
2023/04/25 03:15:36;;;;;;;7.57;6.23;;;12.50;38.20;;;;;;5094679;28;20172;-49
2023/04/25 03:18:02;;;;;;;10.02;5.43;;;12.50;37.90;;;;;;5094548;28;20544;-50
2023/04/25 03:20:28;;;;;;;8.40;5.93;;;12.40;37.90;;;;;;5094337;28;20192;-50
2023/04/25 03:22:54;;;;;;;9.10;6.30;;;12.30;38.10;;;;;;5094121;28;20413;-49
2023/04/25 03:25:20;;;;;;;8.13;5.83;;;12.20;38.10;;;;;;5094676;28;20414;-50
2023/04/25 03:27:45;;;;;;;6.47;5.30;;;12.10;38.20;;;;;;5094133;28;20975;-49
2023/04/25 03:30:11;;;;;;;7.63;5.90;;;12.10;38.40;;;;;;5093939;28;20558;-49
2023/04/25 03:32:37;;;;;;;5.88;4.95;;;12.10;39.10;;;;;;5094098;28;20211;-50
2023/04/25 03:35:04;;;;;;;12.00;6.40;;;12.10;38.70;;;;;;5094105;28;20249;-49
2023/04/25 03:37:29;;;;;;;9.38;6.00;;;12.00;38.50;;;;;;5093915;28;20883;-50
2023/04/25 03:39:55;;;;;;;11.10;6.00;;;12.00;38.60;;;;;;5094210;28;20219;-50
2023/04/25 03:42:22;;;;;;;8.40;6.67;;;12.10;38.70;;;;;;5093731;28;20663;-50
2023/04/25 03:44:49;;;;;;;7.28;5.53;;;12.10;38.50;;;;;;5094252;28;20172;-49
2023/04/25 03:47:15;;;;;;;6.60;5.88;;;12.20;38.50;;;;;;5093939;28;20588;-50
2023/04/25 03:49:41;;;;;;;10.82;6.80;;;12.20;38.50;;;;;;5093776;28;20195;-49
2023/04/25 03:52:07;;;;;;;7.17;5.20;;;12.20;38.30;;;;;;5093614;28;20294;-50
2023/04/25 03:54:32;;;;;;;6.97;6.13;;;12.20;38.30;;;;;;5093717;28;20406;-49
2023/04/25 03:56:58;;;;;;;9.27;5.70;;;12.20;38.40;;;;;;5093821;28;20402;-50
2023/04/25 03:59:25;;;;;;;6.87;5.40;;;12.10;38.30;;;;;;5093541;28;20199;-48
2023/04/25 04:01:52;;;;;;;8.48;7.25;;;12.10;38.40;;;;;;5093424;28;20819;-51
2023/04/25 04:04:18;;;;;;;8.57;6.82;;;12.00;38.40;;;;;;5093489;28;20183;-51
2023/04/25 04:06:43;;;;;;;8.35;5.60;;;12.00;38.40;;;;;;5093675;28;20175;-49
2023/04/25 04:09:10;;;;;;;8.33;5.77;;;12.00;38.40;;;;;;5093529;28;20541;-49
2023/04/25 04:11:38;;;;;;;9.65;6.32;;;12.00;38.60;;;;;;5093492;28;20694;-51
2023/04/25 04:14:05;;;;;;;7.63;6.07;;;11.90;38.60;;;;;;5093242;28;20258;-48
2023/04/25 04:16:31;;;;;;;6.75;6.05;;;12.00;38.60;;;;;;5092611;28;20539;-48
2023/04/25 04:18:56;;;;;;;7.23;6.50;;;12.00;38.50;;;;;;5093050;28;20192;-51
2023/04/25 04:21:22;;;;;;;13.37;6.00;;;12.00;38.70;;;;;;5093172;28;20191;-49
2023/04/25 04:23:48;;;;;;;11.13;6.93;;;11.90;38.80;;;;;;5093179;28;20168;-49
2023/04/25 04:26:16;;;;;;;8.60;6.47;;;12.00;38.90;;;;;;5093225;28;20179;-49
2023/04/25 04:28:43;;;;;;;15.90;6.72;;;12.00;39.00;;;;;;5093048;28;20345;-48
2023/04/25 04:31:10;;;;;;;7.97;6.60;;;12.10;39.10;;;;;;5092933;28;20212;-51
2023/04/25 04:33:36;;;;;;;15.10;6.63;;;12.10;39.10;;;;;;5092666;28;20254;-49
2023/04/25 04:36:02;;;;;;;9.65;6.20;;;12.10;39.10;;;;;;5093186;28;20176;-51
2023/04/25 04:38:29;;;;;;;12.75;6.80;;;12.20;39.00;;;;;;5092745;28;20200;-48
2023/04/25 04:40:56;;;;;;;7.35;6.50;;;12.20;38.90;;;;;;5093033;28;20184;-48
2023/04/25 04:43:22;;;;;;;8.63;7.13;;;12.30;38.90;;;;;;5092815;28;20176;-50
2023/04/25 04:45:49;;;;;;;10.20;5.93;;;12.40;38.80;;;;;;5093129;28;20591;-51
2023/04/25 04:48:16;;;;;;;15.02;6.85;;;12.50;38.80;;;;;;5092627;28;20229;-49
2023/04/25 04:50:45;;;;;;;6.60;5.75;;;12.50;38.70;;;;;;5092526;28;20230;-50
2023/04/25 04:53:11;;;;;;;13.43;6.82;;;12.60;38.60;;;;;;5092364;28;20655;-50
2023/04/25 04:55:37;;;;;;;7.60;5.20;;;12.60;38.50;;;;;;5092793;28;20206;-48
2023/04/25 04:58:03;;;;;;;8.93;6.03;;;12.70;38.50;;;;;;5092467;28;20464;-50
2023/04/25 05:00:29;;;;;;;9.87;6.80;;;12.80;38.40;;;;;;5092629;28;20421;-50
2023/04/25 05:02:56;;;;;;;15.00;6.80;;;12.80;38.40;;;;;;5092186;28;20504;-48
2023/04/25 05:05:22;;;;;;;8.90;6.55;;;12.90;38.10;;;;;;5092686;28;20406;-48
2023/04/25 05:07:47;;;;;;;9.20;6.17;;;13.00;38.00;;;;;;5092398;28;20176;-51
2023/04/25 05:10:13;;;;;;;6.70;5.80;;;13.00;37.90;;;;;;5092468;28;20426;-48
2023/04/25 05:12:39;;;;;;;10.27;6.27;;;13.10;37.90;;;;;;5092403;28;20172;-51
2023/04/25 05:15:05;;;;;;;10.30;6.43;;;13.20;37.80;;;;;;5092263;28;20393;-51
2023/04/25 05:17:32;;;;;;;9.38;6.18;;;13.30;37.80;;;;;;5092371;28;20413;-50
2023/04/25 05:19:58;;;;;;;13.10;7.45;;;13.40;37.50;;;;;;5092098;28;20206;-48
2023/04/25 05:22:24;;;;;;;8.13;6.57;;;13.40;37.40;;;;;;5092271;28;20180;-50
2023/04/25 05:24:51;;;;;;;8.40;7.07;;;13.30;37.10;;;;;;5092463;28;20410;-51
2023/04/25 05:27:17;;;;;;;11.50;8.00;;;13.30;37.30;;;;;;5092053;28;20214;-48
2023/04/25 05:29:43;;;;;;;8.68;5.43;;;13.40;37.40;;;;;;5091927;28;20567;-48
2023/04/25 05:32:09;;;;;;;9.00;5.60;;;13.40;37.10;;;;;;5091697;28;20290;-50
2023/04/25 05:34:36;;;;;;;11.27;5.90;;;13.40;36.80;;;;;;5092257;28;20397;-48
2023/04/25 05:37:02;;;;;;;9.40;6.72;;;13.50;36.80;;;;;;5092283;28;20473;-52
2023/04/25 05:39:28;;;;;;;8.63;6.65;;;13.60;36.70;;;;;;5092096;28;20199;-50
2023/04/25 05:41:54;;;;;;;6.63;5.93;;;13.70;36.70;;;;;;5091796;28;20594;-49
2023/04/25 05:44:20;;;;;;;9.63;5.67;;;13.70;36.40;;;;;;5092171;28;20409;-49
2023/04/25 05:46:46;;;;;;;10.13;6.55;;;13.80;36.10;;;;;;5092054;28;20813;-49
2023/04/25 05:49:12;;;;;;;9.02;5.80;;;13.80;36.00;;;;;;5092082;28;20568;-49
2023/04/25 05:51:38;;;;;;;9.80;6.27;;;13.80;35.60;;;;;;5091840;28;20196;-50
2023/04/25 05:54:04;;;;;;;7.90;5.80;;;13.80;35.70;;;;;;5091996;28;20430;-48
2023/04/25 05:56:30;;;;;;;7.53;6.00;;;13.70;35.50;;;;;;5092188;28;20251;-48
2023/04/25 05:58:56;;;;;;;7.47;5.73;;;13.70;35.80;;;;;;5091588;28;20755;-51
2023/04/25 06:01:22;;;;;;;7.13;6.13;;;13.80;35.30;;;;;;5091776;28;20225;-49
2023/04/25 06:03:48;;;;;;;9.77;6.78;;;13.80;35.50;;;;;;5091837;28;20409;-48
2023/04/25 06:06:14;;;;;;;9.37;6.17;;;13.90;35.60;;;;;;5091678;28;20659;-51
2023/04/25 06:08:40;;;;;;;6.30;5.37;;;13.90;35.00;;;;;;5091543;28;20409;-52
2023/04/25 06:11:06;;;;;;;8.13;5.35;;;14.00;35.30;;;;;;5091728;28;20188;-48
2023/04/25 06:13:32;;;;;;;11.43;5.77;;;14.00;35.00;;;;;;5091383;28;20194;-48
2023/04/25 06:15:58;;;;;;;10.93;5.95;;;14.10;34.60;;;;;;5091668;28;20632;-50
2023/04/25 06:18:23;;;;;;;7.90;5.63;;;14.00;34.60;;;;;;5091794;28;20259;-49
2023/04/25 06:20:49;;;;;;;12.53;6.10;;;14.10;34.50;;;;;;5091748;28;20176;-50
2023/04/25 06:23:15;;;;;;;8.90;6.37;;;14.20;34.30;;;;;;5091250;28;20640;-48
2023/04/25 06:25:41;;;;;;;8.23;5.50;;;14.30;34.60;;;;;;5091904;28;20221;-49
2023/04/25 06:28:06;;;;;;;7.70;5.40;;;14.40;34.30;;;;;;5091424;28;20191;-51
2023/04/25 06:30:32;;;;;;;8.57;6.20;;;14.50;34.70;;;;;;5091241;28;20268;-49
2023/04/25 06:32:58;;;;;;;6.83;5.20;;;14.60;33.80;;;;;;5091594;28;20175;-50
2023/04/25 06:35:23;;;;;;;10.67;5.13;;;14.60;33.30;;;;;;5091845;28;20168;-50
2023/04/25 06:37:49;;;;;;;11.10;5.30;;;14.70;33.20;;;;;;5091757;28;20628;-51
2023/04/25 06:40:17;;;;;;;17.43;6.20;;;14.70;33.60;;;;;;5095222;28;20223;-50
2023/04/25 06:42:42;;;;;;;7.50;5.75;;;14.60;33.60;;;;;;5094847;28;20540;-51
2023/04/25 06:45:09;;;;;;;10.43;5.50;;;14.70;33.20;;;;;;5095361;28;20186;-48
2023/04/25 06:47:34;;;;;;;11.40;5.43;;;14.80;33.30;;;;;;5095349;28;20168;-51
2023/04/25 06:50:00;;;;;;;7.90;5.10;;;14.90;32.80;;;;;;5095071;28;20195;-48
2023/04/25 06:52:26;;;;;;;16.93;6.40;;;14.90;33.30;;;;;;5094972;28;20548;-51
2023/04/25 06:54:51;;;;;;;9.83;4.73;;;15.00;33.00;;;;;;5095123;28;20516;-50
2023/04/25 06:57:17;;;;;;;10.70;5.90;;;15.00;32.20;;;;;;5095062;28;20215;-48
2023/04/25 06:59:43;;;;;;;7.57;4.73;;;15.10;32.90;;;;;;5094994;28;20264;-51
2023/04/25 07:02:08;;;;;;;6.00;4.73;;;15.30;32.60;;;;;;5094501;28;20168;-51
2023/04/25 07:04:34;;;;;;;9.00;4.40;;;15.40;32.90;;;;;;5094696;28;20160;-48
2023/04/25 07:07:02;;;;;;;7.00;4.07;;;15.50;32.10;;;;;;5094557;28;20532;-51
2023/04/25 07:09:28;;;;;;;6.82;5.47;;;15.70;32.60;;;;;;5094549;28;20563;-51
2023/04/25 07:11:54;;;;;;;7.03;4.03;;;15.80;31.30;;;;;;5094204;28;20195;-50
2023/04/25 07:14:20;;;;;;;4.93;4.03;;;15.90;31.80;;;;;;5094841;28;20414;-50
2023/04/25 07:16:46;;;;;;;8.03;4.10;;;15.90;31.90;;;;;;5094746;28;20168;-50
2023/04/25 07:19:12;;;;;;;7.20;3.50;;;16.20;31.80;;;;;;5094340;28;20458;-50
2023/04/25 07:21:37;;;;;;;4.75;3.60;;;16.20;30.60;;;;;;5094215;28;20410;-50
2023/04/25 07:24:03;;;;;;;8.13;4.27;;;16.30;30.60;;;;;;5094188;28;20190;-50
2023/04/25 07:26:29;;;;;;;4.68;3.53;;;16.40;30.40;;;;;;5094144;28;20176;-50
2023/04/25 07:28:55;;;;;;;5.00;4.50;;;16.50;29.50;;;;;;5094473;28;20199;-50
2023/04/25 07:31:22;;;;;;;7.30;4.73;;;16.50;28.90;;;;;;5094094;28;20208;-51
2023/04/25 07:33:48;;;;;;;7.50;3.97;;;16.50;30.10;;;;;;5093933;28;20631;-50
2023/04/25 07:36:15;;;;;;;5.90;4.43;;;16.50;30.30;;;;;;5094173;28;20184;-48
2023/04/25 07:38:41;;;;;;;8.18;5.00;;;16.50;29.90;;;;;;5094019;28;20172;-51
2023/04/25 07:41:06;;;;;;;6.83;4.50;;;16.60;30.10;;;;;;5094201;28;20666;-51
2023/04/25 07:43:32;;;;;;;4.20;3.57;;;16.70;30.00;;;;;;5093756;28;21031;-48
2023/04/25 07:45:58;;;;;;;3.93;3.40;;;16.80;28.50;;;;;;5094045;28;20258;-50
2023/04/25 07:48:23;;;;;;;6.13;3.60;;;16.90;29.50;;;;;;5093845;28;20176;-50
2023/04/25 07:50:49;;;;;;;9.30;4.90;;;17.00;30.10;;;;;;5093822;28;20671;-50
2023/04/25 07:53:17;;;;;;;5.93;2.90;;;17.20;29.30;;;;;;5093555;28;20207;-50
2023/04/25 07:55:43;;;;;;;5.53;3.90;;;17.30;29.70;;;;;;5093559;28;20168;-51
2023/04/25 07:58:09;;;;;;;5.37;3.53;;;17.20;28.50;;;;;;5093590;28;20174;-51
2023/04/25 08:00:36;;;;;;;7.15;3.67;;;17.10;28.60;;;;;;5093584;28;20456;-50
2023/04/25 08:03:02;;;;;;;5.10;4.50;;;17.10;28.70;;;;;;5093339;28;20704;-51
2023/04/25 08:05:29;;;;;;;5.10;3.20;;;17.30;29.30;;;;;;5093432;28;20180;-50
2023/04/25 08:07:56;;;;;;;5.32;3.90;;;17.50;29.50;;;;;;5093514;28;20183;-50
2023/04/25 08:10:22;;;;;;;5.13;4.40;;;17.80;28.80;;;;;;5093234;28;20541;-51
2023/04/25 08:12:49;;;;;;;8.40;3.78;;;18.00;26.70;;;;;;5093106;28;20197;-51
2023/04/25 08:15:14;;;;;;;4.47;3.10;;;18.00;28.40;;;;;;5093459;28;20275;-51
2023/04/25 08:17:40;;;;;;;7.43;4.67;;;18.10;28.50;;;;;;5093348;28;20695;-50
2023/04/25 08:20:06;;;;;;;7.87;4.67;;;18.10;28.30;;;;;;5093067;28;20422;-51
2023/04/25 08:22:33;;;;;;;6.93;3.92;;;18.10;28.70;;;;;;5092091;28;20408;-51
2023/04/25 08:24:59;;;;;;;7.43;4.60;;;18.00;28.00;;;;;;5093362;28;20238;-51
2023/04/25 08:27:25;;;;;;;6.80;4.17;;;18.00;29.10;;;;;;5093273;28;20168;-50
2023/04/25 08:29:51;;;;;;;6.13;3.73;;;18.10;29.40;;;;;;5093010;28;20429;-51
2023/04/25 08:32:18;;;;;;;5.30;3.37;;;18.20;29.20;;;;;;5092897;28;20740;-51
2023/04/25 08:34:43;;;;;;;12.45;3.97;;;18.30;28.50;;;;;;5093159;28;20398;-51
2023/04/25 08:37:09;;;;;;;4.60;3.13;;;18.20;27.90;;;;;;5093018;28;20540;-51
2023/04/25 08:39:38;;;;;;;3.60;3.30;;;18.00;27.70;;;;;;5092772;28;20794;-49
2023/04/25 08:42:09;;;;;;;9.55;4.65;;;17.90;28.90;;;;;;5092803;28;20277;-51
2023/04/25 08:44:35;;;;;;;10.63;4.85;;;17.50;28.00;;;;;;5092948;28;20176;-51
2023/04/25 08:47:05;;;;;;;6.53;4.37;;;17.10;29.50;;;;;;5093093;28;20179;-51
2023/04/25 08:49:34;;;;;;;9.05;5.32;;;17.00;29.60;;;;;;5092839;28;20188;-51
2023/04/25 08:52:03;;;;;;;5.38;3.70;;;17.10;29.90;;;;;;5092345;28;20278;-51
2023/04/25 08:54:31;;;;;;;7.00;3.58;;;17.00;29.20;;;;;;5092599;28;20727;-51
2023/04/25 08:56:59;;;;;;;4.68;2.70;;;16.90;28.50;;;;;;5092809;28;20641;-51
2023/04/25 08:59:26;;;;;;;8.25;3.45;;;16.80;29.80;;;;;;5092603;28;20233;-51
2023/04/25 09:01:52;;;;;;;4.20;3.80;;;16.90;29.90;;;;;;5091863;28;20533;-51
2023/04/25 09:04:19;;;;;;;4.90;4.03;;;17.10;29.00;;;;;;5092351;28;20236;-51
2023/04/25 09:06:45;;;;;;;5.63;4.22;;;17.00;29.10;;;;;;5092309;28;20229;-51
2023/04/25 09:09:11;;;;;;;5.90;4.50;;;16.80;29.20;;;;;;5092593;28;20265;-51
2023/04/25 09:11:37;;;;;;;5.40;4.43;;;16.80;30.20;;;;;;5092126;28;20214;-51
2023/04/25 09:14:15;;;;;;;6.15;4.00;;;17.00;30.20;;;;;;5092172;28;20171;-51
2023/04/25 09:16:55;;;;;;;5.00;4.50;;;17.20;29.50;;;;;;5092250;28;20180;-51
2023/04/25 09:19:26;;;;;;;6.15;5.15;;;17.20;30.00;;;;;;5092430;28;20215;-51
2023/04/25 09:21:56;;;;;;;8.07;5.28;;;17.30;30.60;;;;;;5092107;28;20182;-51
2023/04/25 09:24:36;;;;;;;8.45;5.60;;;17.20;29.60;;;;;;5092319;28;20255;-51
2023/04/25 09:27:09;;;;;;;5.43;4.40;;;17.30;29.90;;;;;;5092166;28;20659;-51
2023/04/25 09:29:37;;;;;;;6.55;5.30;;;17.20;29.40;;;;;;5092004;28;20204;-51
2023/04/25 09:32:19;;;;;;;7.00;5.43;;;17.10;30.10;;;;;;5091781;28;20215;-51
2023/04/25 09:34:49;;;;;;;7.72;4.82;;;17.10;30.10;;;;;;5092092;28;20713;-51
2023/04/25 09:37:41;;;;;;;7.57;4.97;;;17.00;30.20;;;;;;5092324;28;20254;-51
2023/04/25 09:40:07;;;;;;;6.53;6.00;;;16.90;29.80;;;;;;5091761;28;20202;-51
2023/04/25 09:42:34;;;;;;;5.85;4.85;;;16.50;29.60;;;;;;5092057;28;20176;-51
2023/04/25 09:45:03;;;;;;;13.57;6.18;;;16.30;30.00;;;;;;5092212;28;20258;-50
2023/04/25 09:47:29;;;;;;;8.98;6.20;;;16.10;30.80;;;;;;5092051;28;20172;-52
2023/04/25 09:49:55;;;;;;;7.60;5.57;;;16.00;30.20;;;;;;5092068;28;20202;-50
2023/04/25 09:52:23;;;;;;;6.00;5.50;;;15.90;30.90;;;;;;5091635;28;20717;-50
2023/04/25 09:54:49;;;;;;;8.02;5.10;;;15.80;30.50;;;;;;5092107;28;20426;-52
2023/04/25 09:57:23;;;;;;;6.70;5.40;;;15.60;31.30;;;;;;5091906;28;20541;-51
2023/04/25 09:59:51;;;;;;;11.63;5.28;;;15.60;31.20;;;;;;5091829;28;20668;-49
2023/04/25 10:02:20;;;;;;;5.57;4.00;;;15.70;32.00;;;;;;5091979;28;20573;-52
2023/04/25 10:04:48;;;;;;;5.43;4.00;;;15.80;31.70;;;;;;5091572;28;20183;-49
2023/04/25 10:07:15;;;;;;;4.93;4.43;;;16.00;31.90;;;;;;5092009;28;20214;-51
2023/04/25 10:09:41;;;;;;;6.88;4.97;;;16.20;32.10;;;;;;5092045;28;20203;-51
2023/04/25 10:12:08;;;;;;;4.25;3.40;;;16.40;31.90;;;;;;5091414;28;20412;-49
2023/04/25 10:14:35;;;;;;;5.32;4.10;;;16.60;30.60;;;;;;5094786;28;20188;-49
2023/04/25 10:17:01;;;;;;;5.93;3.95;;;16.80;31.80;;;;;;5095596;28;20710;-49
2023/04/25 10:19:27;;;;;;;6.60;4.30;;;17.00;31.80;;;;;;5095642;28;20286;-51
2023/04/25 10:22:04;;;;;;;12.23;4.45;;;17.20;31.40;;;;;;5095563;28;20184;-52
2023/04/25 10:24:30;;;;;;;7.53;4.60;;;17.00;30.30;;;;;;5095796;28;20156;-49
2023/04/25 10:26:57;;;;;;;4.33;3.80;;;16.80;29.90;;;;;;5095525;28;20509;-51
2023/04/25 10:29:24;;;;;;;5.45;4.50;;;16.70;30.90;;;;;;5095395;28;20264;-49
2023/04/25 10:31:50;;;;;;;7.68;4.00;;;16.80;31.40;;;;;;5094820;28;20210;-50
2023/04/25 10:34:17;;;;;;;5.50;4.53;;;16.90;30.90;;;;;;5095274;28;20176;-51
2023/04/25 10:36:48;;;;;;;5.68;4.20;;;16.90;30.90;;;;;;5095539;28;20416;-51
2023/04/25 10:39:26;;;;;;;5.20;4.25;;;16.90;31.50;;;;;;5095145;28;20755;-49
2023/04/25 10:41:59;;;;;;;6.70;5.28;;;17.00;31.60;;;;;;5095030;28;20679;-52
2023/04/25 10:44:29;;;;;;;6.20;5.60;;;17.00;32.20;;;;;;5095010;28;20168;-49
2023/04/25 10:46:57;;;;;;;7.40;5.90;;;17.00;30.60;;;;;;5095307;28;20623;-51
2023/04/25 10:49:33;;;;;;;8.77;5.07;;;16.80;31.60;;;;;;5095145;28;20227;-51
2023/04/25 10:52:16;;;;;;;9.07;5.80;;;16.80;31.40;;;;;;5094923;28;20245;-49
2023/04/25 10:54:55;;;;;;;6.03;4.80;;;16.80;31.70;;;;;;5094898;28;20586;-50
2023/04/25 10:57:43;;;;;;;6.93;6.22;;;16.90;31.50;;;;;;5094944;28;20631;-51
2023/04/25 11:00:15;;;;;;;8.38;5.13;;;16.80;30.90;;;;;;5094730;28;20207;-49
2023/04/25 11:02:45;;;;;;;6.65;5.93;;;16.60;31.30;;;;;;5094523;28;20176;-51
2023/04/25 11:05:36;;;;;;;6.72;6.10;;;16.40;31.30;;;;;;5094890;28;20180;-49
2023/04/25 11:08:06;;;;;;;8.43;6.30;;;16.20;31.70;;;;;;5094434;28;20547;-49
2023/04/25 11:10:35;;;;;;;6.30;5.50;;;16.00;32.40;;;;;;5094507;28;20245;-49
2023/04/25 11:13:01;;;;;;;7.85;5.63;;;15.90;32.30;;;;;;5094571;28;20199;-51
2023/04/25 11:15:28;;;;;;;6.88;6.20;;;15.80;32.30;;;;;;5094459;28;20255;-49
2023/04/25 11:17:55;;;;;;;8.13;4.30;;;15.70;33.20;;;;;;5094478;28;20558;-51
2023/04/25 11:20:22;;;;;;;7.65;6.07;;;15.60;33.80;;;;;;5094659;28;20278;-49
2023/04/25 11:22:48;;;;;;;6.25;4.10;;;15.60;34.30;;;;;;5094129;28;20180;-49
2023/04/25 11:25:16;;;;;;;12.38;5.55;;;15.50;34.40;;;;;;5093952;28;20187;-52
2023/04/25 11:27:56;;;;;;;7.88;5.07;;;15.60;34.40;;;;;;5094600;28;20176;-49
2023/04/25 11:30:24;;;;;;;7.22;5.00;;;15.80;35.20;;;;;;5093956;28;20221;-52
2023/04/25 11:32:51;;;;;;;10.05;4.93;;;15.70;35.40;;;;;;5094098;28;20208;-52
2023/04/25 11:35:22;;;;;;;8.10;4.15;;;15.80;35.20;;;;;;5094215;28;20184;-50
2023/04/25 11:37:49;;;;;;;4.18;2.55;;;15.90;34.40;;;;;;5094299;28;20411;-50
2023/04/25 11:40:15;;;;;;;3.85;2.10;;;16.00;32.60;;;;;;5094056;28;20855;-52
2023/04/25 11:42:46;;;;;;;5.20;2.00;;;16.10;33.00;;;;;;5093749;28;20255;-49
2023/04/25 11:45:13;;;;;;;2.97;2.00;;;16.30;33.40;;;;;;5093865;28;20428;-50
2023/04/25 11:47:38;;;;;;;6.13;1.85;;;16.60;33.00;;;;;;5093839;28;20184;-52
2023/04/25 11:50:07;;;;;;;5.53;2.10;;;16.80;32.90;;;;;;5093706;28;20236;-50
2023/04/25 11:52:40;;;;;;;6.22;2.90;;;17.00;31.30;;;;;;5093487;28;20510;-50
2023/04/25 11:55:12;;;;;;;2.88;2.35;;;17.20;31.70;;;;;;5093826;28;20797;-53
2023/04/25 11:57:39;;;;;;;7.07;2.65;;;17.40;30.40;;;;;;5093703;28;20642;-52
2023/04/25 12:00:17;;;;;;;6.25;2.60;;;17.40;30.30;;;;;;5093804;28;20203;-50
2023/04/25 12:02:52;;;;;;;3.53;2.65;;;17.50;30.50;;;;;;5093707;28;20168;-52
2023/04/25 12:05:19;;;;;;;3.08;2.15;;;17.50;30.50;;;;;;5093554;28;20167;-52
2023/04/25 12:07:46;;;;;;;3.05;2.55;;;17.50;30.50;;;;;;5093450;28;20176;-50
2023/04/25 12:10:16;;;;;;;7.57;2.85;;;17.50;30.60;;;;;;5093656;28;20208;-52
2023/04/25 12:12:44;;;;;;;6.60;3.83;;;17.40;30.00;;;;;;5093441;28;20274;-49
2023/04/25 12:15:15;;;;;;;8.88;3.83;;;17.30;29.70;;;;;;5093315;28;20282;-52
2023/04/25 12:17:44;;;;;;;5.18;2.90;;;17.00;29.40;;;;;;5093330;28;20179;-49
2023/04/25 12:20:19;;;;;;;2.67;2.17;;;16.90;29.90;;;;;;5093084;28;20226;-49
2023/04/25 12:22:47;;;;;;;6.18;3.25;;;16.70;30.70;;;;;;5093049;28;20172;-52
2023/04/25 12:25:17;;;;;;;4.70;2.80;;;16.60;30.30;;;;;;5093243;28;20753;-50
2023/04/25 12:27:43;;;;;;;8.50;3.47;;;16.60;30.60;;;;;;5093425;28;20202;-51
2023/04/25 12:30:13;;;;;;;8.00;3.22;;;16.60;30.10;;;;;;5093023;28;20211;-51
2023/04/25 12:32:39;;;;;;;16.02;4.15;;;16.60;29.70;;;;;;5092677;28;20695;-49
2023/04/25 12:35:06;;;;;;;8.60;3.70;;;16.60;29.80;;;;;;5093214;28;20210;-52
2023/04/25 12:37:32;;;;;;;7.85;3.92;;;16.70;30.00;;;;;;5092569;28;20221;-49
2023/04/25 12:39:57;;;;;;;8.20;4.10;;;16.80;29.20;;;;;;5093084;28;20207;-49
2023/04/25 12:42:23;;;;;;;8.20;4.07;;;17.00;30.40;;;;;;5092921;28;20174;-52
2023/04/25 12:44:49;;;;;;;5.87;4.00;;;17.20;31.10;;;;;;5092846;28;20663;-52
2023/04/25 12:47:15;;;;;;;8.50;4.03;;;17.50;28.10;;;;;;5092742;28;20254;-49